Terminal Aerodrome Forecast
Issued by NWS North Platte, NE

Home | Current Version | Previous Version | Graphics & Text | Print | Product List | Glossary On
Versions: 1 2 3 4 5 6 7 8 9 10 11 12 13 14 15 16 17 18 19
000
FTUS43 KLBF 260500
TAFVTN
TAF
KVTN 260528Z 2606/2706 36016G24KT 3SM -SN BKN012
     FM261200 36010KT 5SM -SN BR OVC013
     FM261500 33010KT P6SM OVC015
     FM262000 34009KT P6SM BKN020 OVC100
      TEMPO 2621/2701 2SM -SN BR OVC015=

USA.gov is the U.S. government's official web portal to all federal, state and local government web resources and services.